sensor_id;sensor_type;location;lat;lon;timestamp;pressure;altitude;pressure_sealevel;temperature;humidity
11049;BME280;5577;42.706;23.160;2024-03-23T00:51:29;94154.41;;;2.74;100.00
11049;BME280;5577;42.706;23.160;2024-03-23T00:54:14;94162.03;;;2.48;100.00
11049;BME280;5577;42.706;23.160;2024-03-23T00:56:58;94158.53;;;2.53;100.00
11049;BME280;5577;42.706;23.160;2024-03-23T00:59:42;94163.59;;;2.49;100.00
11049;BME280;5577;42.706;23.160;2024-03-23T01:02:26;94150.75;;;2.26;100.00
11049;BME280;5577;42.706;23.160;2024-03-23T01:05:10;94154.44;;;2.25;100.00
11049;BME280;5577;42.706;23.160;2024-03-23T01:07:54;94156.56;;;2.36;100.00
11049;BME280;5577;42.706;23.160;2024-03-23T01:10:38;94147.09;;;2.27;100.00
11049;BME280;5577;42.706;23.160;2024-03-23T01:13:22;94156.38;;;2.19;100.00
11049;BME280;5577;42.706;23.160;2024-03-23T01:16:06;94160.81;;;2.19;100.00
11049;BME280;5577;42.706;23.160;2024-03-23T01:18:50;94161.13;;;2.17;100.00
11049;BME280;5577;42.706;23.160;2024-03-23T01:21:34;94157.84;;;2.12;100.00
11049;BME280;5577;42.706;23.160;2024-03-23T01:24:19;94159.59;;;2.03;100.00
11049;BME280;5577;42.706;23.160;2024-03-23T01:27:03;94153.59;;;2.02;100.00
11049;BME280;5577;42.706;23.160;2024-03-23T01:29:47;94161.72;;;2.01;100.00
11049;BME280;5577;42.706;23.160;2024-03-23T01:32:31;94153.59;;;2.02;100.00
11049;BME280;5577;42.706;23.160;2024-03-23T01:35:16;94151.09;;;2.11;100.00
11049;BME280;5577;42.706;23.160;2024-03-23T01:37:59;94152.91;;;2.24;100.00
11049;BME280;5577;42.706;23.160;2024-03-23T01:40:43;94158.38;;;2.36;100.00
11049;BME280;5577;42.706;23.160;2024-03-23T01:43:27;94154.31;;;2.30;100.00
11049;BME280;5577;42.706;23.160;2024-03-23T01:46:11;94153.53;;;2.43;100.00
11049;BME280;5577;42.706;23.160;2024-03-23T01:48:55;94160.81;;;2.32;100.00
11049;BME280;5577;42.706;23.160;2024-03-23T01:51:39;94156.06;;;2.34;100.00
11049;BME280;5577;42.706;23.160;2024-03-23T01:54:23;94159.88;;;2.28;100.00
11049;BME280;5577;42.706;23.160;2024-03-23T01:57:08;94159.09;;;2.28;100.00
11049;BME280;5577;42.706;23.160;2024-03-23T01:59:51;94166.72;;;2.24;100.00
11049;BME280;5577;42.706;23.160;2024-03-23T02:02:46;94151.69;;;1.94;100.00
11049;BME280;5577;42.706;23.160;2024-03-23T02:05:30;94159.59;;;1.89;100.00
11049;BME280;5577;42.706;23.160;2024-03-23T02:08:14;94159.59;;;1.89;100.00
11049;BME280;5577;42.706;23.160;2024-03-23T02:10:59;94157.00;;;1.76;100.00
11049;BME280;5577;42.706;23.160;2024-03-23T02:13:43;94162.72;;;1.78;100.00
11049;BME280;5577;42.706;23.160;2024-03-23T02:16:27;94157.97;;;1.80;100.00
11049;BME280;5577;42.706;23.160;2024-03-23T02:19:11;94158.94;;;1.97;100.00
11049;BME280;5577;42.706;23.160;2024-03-23T02:21:55;94159.59;;;1.89;100.00
11049;BME280;5577;42.706;23.160;2024-03-23T02:24:39;94162.03;;;1.86;100.00
11049;BME280;5577;42.706;23.160;2024-03-23T02:27:24;94166.66;;;1.89;100.00
11049;BME280;5577;42.706;23.160;2024-03-23T02:30:08;94162.78;;;2.00;100.00
11049;BME280;5577;42.706;23.160;2024-03-23T02:32:52;94140.84;;;1.87;100.00
11049;BME280;5577;42.706;23.160;2024-03-23T02:35:36;94159.69;;;1.98;100.00
11049;BME280;5577;42.706;23.160;2024-03-23T02:38:20;94158.56;;;1.90;100.00
11049;BME280;5577;42.706;23.160;2024-03-23T02:41:04;94159.69;;;1.98;100.00
11049;BME280;5577;42.706;23.160;2024-03-23T02:43:49;94153.91;;;1.87;100.00
11049;BME280;5577;42.706;23.160;2024-03-23T02:46:33;94151.56;;;1.99;100.00
11049;BME280;5577;42.706;23.160;2024-03-23T02:49:17;94151.31;;;1.87;100.00
11049;BME280;5577;42.706;23.160;2024-03-23T02:52:02;94153.41;;;1.85;100.00
11049;BME280;5577;42.706;23.160;2024-03-23T02:54:46;94151.09;;;1.84;100.00
11049;BME280;5577;42.706;23.160;2024-03-23T02:57:30;94153.13;;;1.87;100.00
11049;BME280;5577;42.706;23.160;2024-03-23T03:00:14;94161.06;;;1.95;100.00
11049;BME280;5577;42.706;23.160;2024-03-23T03:02:58;94152.75;;;1.93;100.00
11049;BME280;5577;42.706;23.160;2024-03-23T03:05:42;94149.75;;;1.86;100.00
11049;BME280;5577;42.706;23.160;2024-03-23T03:08:26;94154.28;;;1.81;100.00
11049;BME280;5577;42.706;23.160;2024-03-23T03:11:10;94151.78;;;1.76;100.00
11049;BME280;5577;42.706;23.160;2024-03-23T03:13:54;94152.66;;;1.85;100.00
11049;BME280;5577;42.706;23.160;2024-03-23T03:16:38;94149.75;;;1.73;100.00
11049;BME280;5577;42.706;23.160;2024-03-23T03:19:22;94147.63;;;1.75;100.00
11049;BME280;5577;42.706;23.160;2024-03-23T03:22:06;94152.63;;;1.71;100.00
11049;BME280;5577;42.706;23.160;2024-03-23T03:24:50;94143.78;;;1.72;100.00
11049;BME280;5577;42.706;23.160;2024-03-23T03:27:34;94141.06;;;1.77;100.00
11049;BME280;5577;42.706;23.160;2024-03-23T03:30:18;94146.94;;;1.83;100.00
11049;BME280;5577;42.706;23.160;2024-03-23T03:33:02;94145.59;;;1.85;100.00
11049;BME280;5577;42.706;23.160;2024-03-23T03:35:46;94141.84;;;1.78;100.00
11049;BME280;5577;42.706;23.160;2024-03-23T03:38:30;94145.28;;;1.87;100.00
11049;BME280;5577;42.706;23.160;2024-03-23T03:41:14;94153.13;;;1.87;100.00
11049;BME280;5577;42.706;23.160;2024-03-23T03:43:58;94152.56;;;1.76;100.00
11049;BME280;5577;42.706;23.160;2024-03-23T03:46:46;94143.47;;;1.87;100.00
11049;BME280;5577;42.706;23.160;2024-03-23T03:49:29;94154.88;;;1.91;100.00
11049;BME280;5577;42.706;23.160;2024-03-23T03:52:13;94153.59;;;1.75;100.00
11049;BME280;5577;42.706;23.160;2024-03-23T03:55:01;64821.28;;;-141.11;100.00
11049;BME280;5577;42.706;23.160;2024-03-23T03:57:46;94152.16;;;1.83;100.00
11049;BME280;5577;42.706;23.160;2024-03-23T04:00:30;94103.44;;;1.38;100.00
11049;BME280;5577;42.706;23.160;2024-03-23T04:03:14;94153.25;;;1.82;100.00
11049;BME280;5577;42.706;23.160;2024-03-23T04:05:58;94163.25;;;1.61;100.00
11049;BME280;5577;42.706;23.160;2024-03-23T04:08:42;94154.00;;;1.69;100.00
11049;BME280;5577;42.706;23.160;2024-03-23T04:11:26;94154.56;;;1.52;100.00
11049;BME280;5577;42.706;23.160;2024-03-23T04:14:10;94148.97;;;1.45;100.00
11049;BME280;5577;42.706;23.160;2024-03-23T04:16:54;94164.22;;;1.38;100.00
11049;BME280;5577;42.706;23.160;2024-03-23T04:19:39;94158.44;;;1.41;100.00
11049;BME280;5577;42.706;23.160;2024-03-23T04:22:23;94159.97;;;1.56;100.00
11049;BME280;5577;42.706;23.160;2024-03-23T04:25:10;94160.38;;;1.63;100.00
11049;BME280;5577;42.706;23.160;2024-03-23T04:27:54;94156.22;;;1.62;100.00
11049;BME280;5577;42.706;23.160;2024-03-23T04:30:38;94153.91;;;1.47;100.00
11049;BME280;5577;42.706;23.160;2024-03-23T04:33:22;94159.28;;;1.50;100.00
11049;BME280;5577;42.706;23.160;2024-03-23T04:36:06;94156.97;;;1.49;100.00
11049;BME280;5577;42.706;23.160;2024-03-23T04:38:51;94164.53;;;1.64;100.00
11049;BME280;5577;42.706;23.160;2024-03-23T04:41:36;94166.94;;;1.74;100.00
11049;BME280;5577;42.706;23.160;2024-03-23T04:44:20;94169.47;;;1.65;100.00
11049;BME280;5577;42.706;23.160;2024-03-23T04:47:03;94175.75;;;1.78;100.00
11049;BME280;5577;42.706;23.160;2024-03-23T04:49:49;94166.47;;;1.85;100.00
11049;BME280;5577;42.706;23.160;2024-03-23T04:52:33;94174.00;;;1.87;100.00
11049;BME280;5577;42.706;23.160;2024-03-23T04:55:17;94180.09;;;1.96;100.00
11049;BME280;5577;42.706;23.160;2024-03-23T04:58:00;94158.91;;;2.11;100.00
11049;BME280;5577;42.706;23.160;2024-03-23T05:00:44;94167.31;;;2.21;100.00
11049;BME280;5577;42.706;23.160;2024-03-23T05:03:28;94170.31;;;2.28;100.00
11049;BME280;5577;42.706;23.160;2024-03-23T05:06:12;94175.13;;;2.35;100.00
11049;BME280;5577;42.706;23.160;2024-03-23T05:08:56;94129.00;;;2.30;100.00
11049;BME280;5577;42.706;23.160;2024-03-23T05:11:41;94106.84;;;2.28;100.00
11049;BME280;5577;42.706;23.160;2024-03-23T05:14:26;94155.59;;;2.68;100.00
11049;BME280;5577;42.706;23.160;2024-03-23T05:17:10;94165.06;;;2.99;100.00
11049;BME280;5577;42.706;23.160;2024-03-23T05:19:54;94151.47;;;3.20;100.00
11049;BME280;5577;42.706;23.160;2024-03-23T05:22:39;94161.16;;;3.41;100.00
11049;BME280;5577;42.706;23.160;2024-03-23T05:25:23;94166.44;;;3.50;100.00
11049;BME280;5577;42.706;23.160;2024-03-23T05:28:07;94161.75;;;3.69;100.00
11049;BME280;5577;42.706;23.160;2024-03-23T05:30:54;94158.91;;;3.87;100.00
11049;BME280;5577;42.706;23.160;2024-03-23T05:33:39;94167.91;;;4.03;100.00
11049;BME280;5577;42.706;23.160;2024-03-23T05:36:23;94163.44;;;4.12;100.00
11049;BME280;5577;42.706;23.160;2024-03-23T05:39:10;94172.88;;;4.30;100.00
11049;BME280;5577;42.706;23.160;2024-03-23T05:41:54;94168.28;;;4.44;100.00
11049;BME280;5577;42.706;23.160;2024-03-23T05:44:38;94170.31;;;4.56;100.00
11049;BME280;5577;42.706;23.160;2024-03-23T05:47:22;94178.03;;;4.61;100.00
11049;BME280;5577;42.706;23.160;2024-03-23T05:50:06;94165.25;;;4.68;100.00
11049;BME280;5577;42.706;23.160;2024-03-23T05:52:50;94172.47;;;4.88;100.00
11049;BME280;5577;42.706;23.160;2024-03-23T05:55:34;94171.72;;;4.96;100.00
11049;BME280;5577;42.706;23.160;2024-03-23T05:58:19;94169.41;;;5.03;100.00
11049;BME280;5577;42.706;23.160;2024-03-23T06:01:03;94169.84;;;5.13;100.00
11049;BME280;5577;42.706;23.160;2024-03-23T06:03:48;94164.28;;;5.23;100.00
11049;BME280;5577;42.706;23.160;2024-03-23T06:06:33;94163.03;;;5.38;100.00
11049;BME280;5577;42.706;23.160;2024-03-23T06:09:17;94168.88;;;5.52;100.00
11049;BME280;5577;42.706;23.160;2024-03-23T06:12:00;94159.59;;;5.63;100.00
11049;BME280;5577;42.706;23.160;2024-03-23T06:14:44;94158.59;;;5.76;100.00
11049;BME280;5577;42.706;23.160;2024-03-23T06:17:28;94159.06;;;5.86;100.00
11049;BME280;5577;42.706;23.160;2024-03-23T06:20:12;94156.75;;;5.85;100.00
11049;BME280;5577;42.706;23.160;2024-03-23T06:22:57;94160.56;;;5.96;100.00
11049;BME280;5577;42.706;23.160;2024-03-23T06:25:42;94164.56;;;6.02;100.00
11049;BME280;5577;42.706;23.160;2024-03-23T06:28:26;94161.97;;;5.93;100.00
11049;BME280;5577;42.706;23.160;2024-03-23T06:31:10;94173.84;;;6.00;100.00
11049;BME280;5577;42.706;23.160;2024-03-23T06:33:55;94161.91;;;6.11;100.00
11049;BME280;5577;42.706;23.160;2024-03-23T06:36:39;94170.78;;;6.27;100.00
11049;BME280;5577;42.706;23.160;2024-03-23T06:39:23;94172.88;;;6.42;100.00
11049;BME280;5577;42.706;23.160;2024-03-23T06:42:07;94167.38;;;6.55;100.00
11049;BME280;5577;42.706;23.160;2024-03-23T06:44:51;94167.38;;;6.55;100.00
11049;BME280;5577;42.706;23.160;2024-03-23T06:47:35;94167.06;;;6.57;100.00
11049;BME280;5577;42.706;23.160;2024-03-23T06:50:19;94167.91;;;6.69;100.00
11049;BME280;5577;42.706;23.160;2024-03-23T06:53:03;94164.44;;;6.77;100.00
11049;BME280;5577;42.706;23.160;2024-03-23T06:55:53;94172.56;;;6.84;100.00
11049;BME280;5577;42.706;23.160;2024-03-23T06:58:37;94153.97;;;6.89;100.00
11049;BME280;5577;42.706;23.160;2024-03-23T07:01:21;94150.72;;;6.92;100.00
11049;BME280;5577;42.706;23.160;2024-03-23T07:04:05;94164.78;;;7.29;100.00
11049;BME280;5577;42.706;23.160;2024-03-23T07:06:49;94165.84;;;7.48;100.00
11049;BME280;5577;42.706;23.160;2024-03-23T07:09:33;94155.34;;;7.60;100.00
11049;BME280;5577;42.706;23.160;2024-03-23T07:12:17;94157.31;;;7.63;100.00
11049;BME280;5577;42.706;23.160;2024-03-23T07:15:03;94152.28;;;7.70;100.00
11049;BME280;5577;42.706;23.160;2024-03-23T07:17:47;94148.13;;;7.69;100.00
11049;BME280;5577;42.706;23.160;2024-03-23T07:20:31;94155.47;;;7.76;100.00
11049;BME280;5577;42.706;23.160;2024-03-23T07:23:15;94152.19;;;7.79;100.00
11049;BME280;5577;42.706;23.160;2024-03-23T07:26:00;94147.06;;;7.94;100.00
11049;BME280;5577;42.706;23.160;2024-03-23T07:28:45;94142.81;;;8.26;99.96
11049;BME280;5577;42.706;23.160;2024-03-23T07:31:30;94158.84;;;8.57;95.86
11049;BME280;5577;42.706;23.160;2024-03-23T07:34:14;94145.94;;;8.67;94.31
11049;BME280;5577;42.706;23.160;2024-03-23T07:36:58;94147.47;;;8.80;88.18
11049;BME280;5577;42.706;23.160;2024-03-23T07:39:42;94148.38;;;8.72;88.80
11049;BME280;5577;42.706;23.160;2024-03-23T07:42:26;94149.94;;;8.61;89.69
11049;BME280;5577;42.706;23.160;2024-03-23T07:45:10;94160.25;;;8.66;89.26
11049;BME280;5577;42.706;23.160;2024-03-23T07:47:54;94143.13;;;9.00;90.60
11049;BME280;5577;42.706;23.160;2024-03-23T07:50:38;94140.81;;;9.54;87.44
11049;BME280;5577;42.706;23.160;2024-03-23T07:53:22;94140.50;;;9.71;82.65
11049;BME280;5577;42.706;23.160;2024-03-23T07:56:07;94137.03;;;9.82;78.18
11049;BME280;5577;42.706;23.160;2024-03-23T07:58:52;94129.59;;;9.88;79.40
11049;BME280;5577;42.706;23.160;2024-03-23T08:01:35;94140.28;;;10.07;76.28
11049;BME280;5577;42.706;23.160;2024-03-23T08:04:19;94140.88;;;10.31;76.59
11049;BME280;5577;42.706;23.160;2024-03-23T08:07:04;94132.56;;;10.48;73.75
11049;BME280;5577;42.706;23.160;2024-03-23T08:09:48;94129.78;;;10.95;72.39
11049;BME280;5577;42.706;23.160;2024-03-23T08:12:32;94131.59;;;11.10;70.24
11049;BME280;5577;42.706;23.160;2024-03-23T08:15:16;94126.69;;;11.08;69.51
11049;BME280;5577;42.706;23.160;2024-03-23T08:18:00;94132.59;;;11.40;69.97
11049;BME280;5577;42.706;23.160;2024-03-23T08:20:44;94122.59;;;11.52;66.93
11049;BME280;5577;42.706;23.160;2024-03-23T08:23:29;94120.66;;;11.49;67.17
11049;BME280;5577;42.706;23.160;2024-03-23T08:26:15;94115.78;;;11.51;68.74
11049;BME280;5577;42.706;23.160;2024-03-23T08:28:59;94120.13;;;12.05;65.42
11049;BME280;5577;42.706;23.160;2024-03-23T08:31:43;94100.84;;;12.30;64.14
11049;BME280;5577;42.706;23.160;2024-03-23T08:34:27;94121.06;;;12.38;62.79
11049;BME280;5577;42.706;23.160;2024-03-23T08:37:11;94121.91;;;12.72;62.77
11049;BME280;5577;42.706;23.160;2024-03-23T08:39:55;94109.47;;;13.02;61.52
11049;BME280;5577;42.706;23.160;2024-03-23T08:42:39;94110.97;;;13.32;60.12
11049;BME280;5577;42.706;23.160;2024-03-23T08:45:24;94104.41;;;13.23;59.25
11049;BME280;5577;42.706;23.160;2024-03-23T08:48:08;94094.59;;;13.30;60.47
11049;BME280;5577;42.706;23.160;2024-03-23T08:51:06;94065.31;;;13.27;59.15
11049;BME280;5577;42.706;23.160;2024-03-23T08:53:50;94091.72;;;13.82;57.44
11049;BME280;5577;42.706;23.160;2024-03-23T08:56:34;94091.06;;;13.96;56.38
11049;BME280;5577;42.706;23.160;2024-03-23T08:59:18;94085.03;;;13.99;58.06
11049;BME280;5577;42.706;23.160;2024-03-23T09:02:04;94088.47;;;14.03;55.95
11049;BME280;5577;42.706;23.160;2024-03-23T09:04:48;94085.31;;;14.30;56.44
11049;BME280;5577;42.706;23.160;2024-03-23T09:07:32;94076.81;;;14.72;53.54
11049;BME280;5577;42.706;23.160;2024-03-23T09:10:17;94082.78;;;15.23;51.99
11049;BME280;5577;42.706;23.160;2024-03-23T09:13:01;94070.38;;;15.80;50.39
11049;BME280;5577;42.706;23.160;2024-03-23T09:15:49;94041.03;;;15.69;50.03
11049;BME280;5577;42.706;23.160;2024-03-23T09:18:35;94062.38;;;15.83;48.37
11049;BME280;5577;42.706;23.160;2024-03-23T09:21:19;94062.69;;;15.47;48.81
11049;BME280;5577;42.706;23.160;2024-03-23T09:24:03;94050.19;;;16.07;49.31
11049;BME280;5577;42.706;23.160;2024-03-23T09:26:47;94038.31;;;16.64;47.58
11049;BME280;5577;42.706;23.160;2024-03-23T09:29:31;94035.19;;;16.93;46.48
11049;BME280;5577;42.706;23.160;2024-03-23T09:32:16;94035.09;;;17.18;44.31
11049;BME280;5577;42.706;23.160;2024-03-23T09:35:00;94025.59;;;17.79;43.65
11049;BME280;5577;42.706;23.160;2024-03-23T09:37:44;94026.00;;;18.28;42.67
11049;BME280;5577;42.706;23.160;2024-03-23T09:40:28;94003.13;;;18.94;42.35
11049;BME280;5577;42.706;23.160;2024-03-23T09:43:12;94011.53;;;19.60;40.33
11049;BME280;5577;42.706;23.160;2024-03-23T09:45:56;94008.31;;;19.42;39.84
11049;BME280;5577;42.706;23.160;2024-03-23T09:48:42;93998.09;;;19.87;38.86
11049;BME280;5577;42.706;23.160;2024-03-23T09:51:27;93989.13;;;20.20;38.04
11049;BME280;5577;42.706;23.160;2024-03-23T09:54:11;93982.88;;;20.69;35.55
11049;BME280;5577;42.706;23.160;2024-03-23T09:56:55;93978.81;;;20.61;34.95
11049;BME280;5577;42.706;23.160;2024-03-23T09:59:40;93978.94;;;20.54;34.92
11049;BME280;5577;42.706;23.160;2024-03-23T10:02:24;93970.72;;;21.03;35.01
11049;BME280;5577;42.706;23.160;2024-03-23T10:05:20;93984.50;;;21.96;33.24
11049;BME280;5577;42.706;23.160;2024-03-23T10:11:12;93974.53;;;22.86;26.69
11049;BME280;5577;42.706;23.160;2024-03-23T10:13:57;93955.69;;;23.89;25.96
11049;BME280;5577;42.706;23.160;2024-03-23T10:16:41;93959.69;;;24.56;24.59
11049;BME280;5577;42.706;23.160;2024-03-23T10:19:31;93965.53;;;23.58;24.28
11049;BME280;5577;42.706;23.160;2024-03-23T10:25:09;93919.69;;;24.73;23.00
11049;BME280;5577;42.706;23.160;2024-03-23T10:28:00;93944.91;;;23.77;24.22
11049;BME280;5577;42.706;23.160;2024-03-23T10:30:45;93928.81;;;24.88;23.65
11049;BME280;5577;42.706;23.160;2024-03-23T10:33:29;93934.00;;;24.95;23.30
11049;BME280;5577;42.706;23.160;2024-03-23T10:36:14;93924.91;;;25.11;22.41
11049;BME280;5577;42.706;23.160;2024-03-23T10:38:59;93894.03;;;25.60;22.32
11049;BME280;5577;42.706;23.160;2024-03-23T10:41:44;93920.88;;;25.76;21.65
11049;BME280;5577;42.706;23.160;2024-03-23T10:44:30;93908.38;;;26.18;21.59
11049;BME280;5577;42.706;23.160;2024-03-23T10:47:14;93904.50;;;26.64;20.92
11049;BME280;5577;42.706;23.160;2024-03-23T10:49:58;93892.97;;;26.06;20.77
11049;BME280;5577;42.706;23.160;2024-03-23T10:52:45;93894.22;;;26.32;20.28
11049;BME280;5577;42.706;23.160;2024-03-23T10:55:30;93881.88;;;26.40;21.57
11049;BME280;5577;42.706;23.160;2024-03-23T10:58:15;93877.97;;;27.46;19.33
11049;BME280;5577;42.706;23.160;2024-03-23T11:01:02;93872.66;;;24.79;21.46
11049;BME280;5577;42.706;23.160;2024-03-23T11:03:47;93875.59;;;24.51;21.04
11049;BME280;5577;42.706;23.160;2024-03-23T11:06:38;93862.06;;;24.51;21.70
11049;BME280;5577;42.706;23.160;2024-03-23T11:09:40;93859.81;;;25.23;21.52
11049;BME280;5577;42.706;23.160;2024-03-23T11:12:25;93842.03;;;25.53;21.21
11049;BME280;5577;42.706;23.160;2024-03-23T11:15:13;93838.75;;;26.33;20.56
11049;BME280;5577;42.706;23.160;2024-03-23T11:18:06;93826.47;;;26.92;20.27
11049;BME280;5577;42.706;23.160;2024-03-23T11:20:51;93836.03;;;26.69;20.05
11049;BME280;5577;42.706;23.160;2024-03-23T11:23:35;93827.63;;;24.94;21.84
11049;BME280;5577;42.706;23.160;2024-03-23T11:26:19;93827.09;;;27.37;20.33
11049;BME280;5577;42.706;23.160;2024-03-23T11:29:16;93810.16;;;27.42;19.39
11049;BME280;5577;42.706;23.160;2024-03-23T11:32:01;93822.91;;;27.27;19.67
11049;BME280;5577;42.706;23.160;2024-03-23T11:34:46;93816.69;;;25.95;19.81
11049;BME280;5577;42.706;23.160;2024-03-23T11:37:30;93813.09;;;26.43;19.84
11049;BME280;5577;42.706;23.160;2024-03-23T11:40:19;93816.25;;;26.69;19.34
11049;BME280;5577;42.706;23.160;2024-03-23T11:43:07;93795.00;;;26.22;18.91
11049;BME280;5577;42.706;23.160;2024-03-23T11:45:52;93801.16;;;27.27;18.70
11049;BME280;5577;42.706;23.160;2024-03-23T11:48:37;93788.22;;;29.42;17.98
11049;BME280;5577;42.706;23.160;2024-03-23T11:51:22;93788.75;;;29.11;17.55
11049;BME280;5577;42.706;23.160;2024-03-23T11:54:09;93777.84;;;28.97;18.79
11049;BME280;5577;42.706;23.160;2024-03-23T11:59:41;93769.09;;;27.64;18.41
11049;BME280;5577;42.706;23.160;2024-03-23T12:02:25;93759.97;;;27.11;18.39
11049;BME280;5577;42.706;23.160;2024-03-23T12:05:15;93746.63;;;28.40;17.69
11049;BME280;5577;42.706;23.160;2024-03-23T12:08:35;93751.03;;;30.39;16.45
11049;BME280;5577;42.706;23.160;2024-03-23T12:11:20;93747.25;;;30.57;16.52
11049;BME280;5577;42.706;23.160;2024-03-23T12:14:06;93743.25;;;30.52;16.02
11049;BME280;5577;42.706;23.160;2024-03-23T12:16:50;93742.09;;;30.39;15.46
11049;BME280;5577;42.706;23.160;2024-03-23T12:19:33;93728.81;;;28.82;16.98
11049;BME280;5577;42.706;23.160;2024-03-23T12:22:20;93730.28;;;30.73;15.91
11049;BME280;5577;42.706;23.160;2024-03-23T12:25:05;93721.72;;;29.94;16.61
11049;BME280;5577;42.706;23.160;2024-03-23T12:27:50;93716.94;;;29.14;16.20
11049;BME280;5577;42.706;23.160;2024-03-23T12:30:40;93718.03;;;30.68;16.22
11049;BME280;5577;42.706;23.160;2024-03-23T12:33:25;93714.16;;;31.90;15.30
11049;BME280;5577;42.706;23.160;2024-03-23T12:36:09;93713.78;;;31.24;14.45
11049;BME280;5577;42.706;23.160;2024-03-23T12:38:52;93693.13;;;31.65;15.47
11049;BME280;5577;42.706;23.160;2024-03-23T12:41:37;93703.41;;;30.46;16.10
11049;BME280;5577;42.706;23.160;2024-03-23T12:44:21;93695.22;;;31.02;15.39
11049;BME280;5577;42.706;23.160;2024-03-23T12:47:05;93685.75;;;31.34;14.66
11049;BME280;5577;42.706;23.160;2024-03-23T12:49:49;93682.50;;;30.94;15.53
11049;BME280;5577;42.706;23.160;2024-03-23T12:52:33;93687.53;;;29.78;15.50
11049;BME280;5577;42.706;23.160;2024-03-23T12:55:17;93679.72;;;29.86;15.70
11049;BME280;5577;42.706;23.160;2024-03-23T12:58:02;93678.53;;;29.52;16.20
11049;BME280;5577;42.706;23.160;2024-03-23T13:00:46;93662.56;;;28.04;16.63
11049;BME280;5577;42.706;23.160;2024-03-23T13:03:30;93668.31;;;29.67;16.60
11049;BME280;5577;42.706;23.160;2024-03-23T13:06:14;93667.78;;;31.70;15.11
11049;BME280;5577;42.706;23.160;2024-03-23T13:08:58;93660.13;;;31.85;15.06
11049;BME280;5577;42.706;23.160;2024-03-23T13:11:42;93650.50;;;31.42;14.99
11049;BME280;5577;42.706;23.160;2024-03-23T13:14:26;93641.22;;;31.81;15.22
11049;BME280;5577;42.706;23.160;2024-03-23T13:17:10;93639.25;;;31.87;14.56
11049;BME280;5577;42.706;23.160;2024-03-23T13:19:55;93584.53;;;32.20;14.33
11049;BME280;5577;42.706;23.160;2024-03-23T13:22:42;93636.63;;;33.03;14.63
11049;BME280;5577;42.706;23.160;2024-03-23T13:25:26;93631.19;;;30.78;15.56
11049;BME280;5577;42.706;23.160;2024-03-23T13:28:10;93631.72;;;30.82;15.41
11049;BME280;5577;42.706;23.160;2024-03-23T13:30:55;93621.88;;;31.43;15.15
11049;BME280;5577;42.706;23.160;2024-03-23T13:33:39;93596.09;;;29.03;16.77
11049;BME280;5577;42.706;23.160;2024-03-23T13:36:23;93614.09;;;30.83;16.05
11049;BME280;5577;42.706;23.160;2024-03-23T13:39:07;93614.06;;;31.25;15.60
11049;BME280;5577;42.706;23.160;2024-03-23T13:41:57;93608.47;;;32.58;15.50
11049;BME280;5577;42.706;23.160;2024-03-23T13:44:41;93602.69;;;30.28;15.96
11049;BME280;5577;42.706;23.160;2024-03-23T13:47:25;93598.28;;;30.04;16.67
11049;BME280;5577;42.706;23.160;2024-03-23T13:50:09;93595.31;;;31.49;15.72
11049;BME280;5577;42.706;23.160;2024-03-23T13:52:53;93594.13;;;29.23;17.21
11049;BME280;5577;42.706;23.160;2024-03-23T13:55:37;93591.63;;;30.37;17.01
11049;BME280;5577;42.706;23.160;2024-03-23T13:58:21;93559.53;;;28.75;16.88
11049;BME280;5577;42.706;23.160;2024-03-23T14:01:05;93589.00;;;27.84;18.08
11049;BME280;5577;42.706;23.160;2024-03-23T14:03:50;93578.56;;;27.82;18.46
11049;BME280;5577;42.706;23.160;2024-03-23T14:06:34;93577.34;;;27.83;18.07
11049;BME280;5577;42.706;23.160;2024-03-23T14:09:18;93568.53;;;28.17;18.01
11049;BME280;5577;42.706;23.160;2024-03-23T14:12:07;93572.47;;;29.00;17.96
11049;BME280;5577;42.706;23.160;2024-03-23T14:14:53;93572.47;;;28.80;17.94
11049;BME280;5577;42.706;23.160;2024-03-23T14:17:37;93572.31;;;27.52;18.57
11049;BME280;5577;42.706;23.160;2024-03-23T14:20:22;93567.50;;;26.30;19.22
11049;BME280;5577;42.706;23.160;2024-03-23T14:23:07;93569.16;;;27.16;19.07
11049;BME280;5577;42.706;23.160;2024-03-23T14:25:53;93555.75;;;26.24;19.45
11049;BME280;5577;42.706;23.160;2024-03-23T14:28:37;93561.78;;;25.68;20.29
11049;BME280;5577;42.706;23.160;2024-03-23T14:31:21;93565.44;;;25.56;20.33
11049;BME280;5577;42.706;23.160;2024-03-23T14:34:06;93561.69;;;24.11;21.24
11049;BME280;5577;42.706;23.160;2024-03-23T14:36:49;93558.38;;;24.07;21.33
11049;BME280;5577;42.706;23.160;2024-03-23T14:39:33;93557.50;;;24.19;21.63
11049;BME280;5577;42.706;23.160;2024-03-23T14:42:23;93542.47;;;24.58;21.51
11049;BME280;5577;42.706;23.160;2024-03-23T14:45:08;93547.41;;;24.50;21.08
11049;BME280;5577;42.706;23.160;2024-03-23T14:47:52;93540.16;;;23.25;21.96
11049;BME280;5577;42.706;23.160;2024-03-23T14:50:36;93531.09;;;22.38;23.33
11049;BME280;5577;42.706;23.160;2024-03-23T14:53:20;93533.50;;;22.36;23.38
11049;BME280;5577;42.706;23.160;2024-03-23T14:56:04;93524.84;;;22.41;23.24
11049;BME280;5577;42.706;23.160;2024-03-23T14:58:52;93522.72;;;21.74;23.44
11049;BME280;5577;42.706;23.160;2024-03-23T15:01:36;93532.59;;;21.64;24.07
11049;BME280;5577;42.706;23.160;2024-03-23T15:04:20;93523.16;;;22.10;23.95
11049;BME280;5577;42.706;23.160;2024-03-23T15:07:04;93524.34;;;22.81;23.34
11049;BME280;5577;42.706;23.160;2024-03-23T15:09:48;93513.66;;;22.77;22.77
11049;BME280;5577;42.706;23.160;2024-03-23T15:12:32;93512.13;;;22.42;23.05
11049;BME280;5577;42.706;23.160;2024-03-23T15:15:16;93517.97;;;23.09;22.53
11049;BME280;5577;42.706;23.160;2024-03-23T15:18:00;93516.53;;;22.49;23.58
11049;BME280;5577;42.706;23.160;2024-03-23T15:21:00;93522.34;;;22.47;23.25
11049;BME280;5577;42.706;23.160;2024-03-23T15:23:50;93519.88;;;21.52;24.06
11049;BME280;5577;42.706;23.160;2024-03-23T15:26:34;93520.88;;;20.44;25.17
11049;BME280;5577;42.706;23.160;2024-03-23T15:29:18;93515.66;;;20.05;26.06
11049;BME280;5577;42.706;23.160;2024-03-23T15:32:02;93520.44;;;19.82;26.28